createdAt,value
2023-03-19T00:00:39.096Z,9.84
2023-03-19T00:03:27.215Z,9.84
2023-03-19T00:05:55.696Z,9.83
2023-03-19T00:08:23.860Z,9.83
2023-03-19T00:10:52.294Z,9.83
2023-03-19T00:13:20.561Z,9.82
2023-03-19T00:15:48.862Z,9.82
2023-03-19T00:18:16.932Z,9.80
2023-03-19T00:20:45.126Z,9.80
2023-03-19T00:23:13.396Z,9.79
2023-03-19T00:25:42.215Z,9.79
2023-03-19T00:28:10.362Z,9.79
2023-03-19T00:30:38.518Z,9.78
2023-03-19T00:33:08.212Z,9.77
2023-03-19T00:35:39.292Z,9.77
2023-03-19T00:38:08.007Z,9.76
2023-03-19T00:40:36.127Z,9.75
2023-03-19T00:43:04.489Z,9.73
2023-03-19T00:45:33.009Z,9.72
2023-03-19T00:48:01.411Z,9.71
2023-03-19T00:50:29.804Z,9.69
2023-03-19T00:52:57.938Z,9.68
2023-03-19T00:55:27.490Z,9.67
2023-03-19T00:57:56.283Z,9.65
2023-03-19T01:00:24.537Z,9.65
2023-03-19T01:02:52.725Z,9.63
2023-03-19T01:05:21.504Z,9.62
2023-03-19T01:07:50.949Z,9.62
2023-03-19T01:10:21.006Z,9.62
2023-03-19T01:12:49.254Z,9.62
2023-03-19T01:15:18.362Z,9.61
2023-03-19T01:17:47.001Z,9.61
2023-03-19T01:20:18.726Z,9.60
2023-03-19T01:22:46.838Z,9.59
2023-03-19T01:25:15.099Z,9.56
2023-03-19T01:27:52.504Z,9.55
2023-03-19T01:30:21.830Z,9.54
2023-03-19T01:33:08.898Z,9.53
2023-03-19T01:36:10.151Z,9.52
2023-03-19T01:38:54.546Z,9.50
2023-03-19T01:41:24.130Z,9.48
2023-03-19T01:43:53.873Z,9.46
2023-03-19T01:46:50.498Z,9.45
2023-03-19T01:49:40.551Z,9.43
2023-03-19T01:52:21.827Z,9.42
2023-03-19T01:55:07.613Z,9.41
2023-03-19T01:58:07.851Z,9.39
2023-03-19T02:00:57.311Z,9.39
2023-03-19T02:03:26.896Z,9.38
2023-03-19T02:06:03.026Z,9.37
2023-03-19T02:08:32.577Z,9.37
2023-03-19T02:11:02.181Z,9.36
2023-03-19T02:13:30.475Z,9.36
2023-03-19T02:15:58.698Z,9.37
2023-03-19T02:18:27.413Z,9.37
2023-03-19T02:21:06.232Z,9.37
2023-03-19T02:23:42.441Z,9.38
2023-03-19T02:26:22.004Z,9.40
2023-03-19T02:28:53.118Z,9.40
2023-03-19T02:31:25.833Z,9.41
2023-03-19T02:34:37.583Z,9.41
2023-03-19T02:37:11.850Z,9.43
2023-03-19T02:39:50.815Z,9.43
2023-03-19T02:42:21.248Z,9.42
2023-03-19T02:44:49.518Z,9.43
2023-03-19T02:47:18.279Z,9.43
2023-03-19T02:49:46.899Z,9.43
2023-03-19T02:52:17.490Z,9.43
2023-03-19T02:54:46.789Z,9.43
2023-03-19T02:57:14.913Z,9.43
2023-03-19T02:59:43.209Z,9.44
2023-03-19T03:02:11.949Z,9.45
2023-03-19T03:04:40.309Z,9.45
2023-03-19T03:07:08.653Z,9.45
2023-03-19T03:09:36.780Z,9.45
2023-03-19T03:12:06.213Z,9.45
2023-03-19T03:14:35.175Z,9.44
2023-03-19T03:17:03.479Z,9.44
2023-03-19T03:19:32.221Z,9.45
2023-03-19T03:22:01.149Z,9.45
2023-03-19T03:24:30.503Z,9.45
2023-03-19T03:26:59.016Z,9.44
2023-03-19T03:29:27.307Z,9.44
2023-03-19T03:31:55.368Z,9.43
2023-03-19T03:34:23.466Z,9.42
2023-03-19T03:36:52.165Z,9.41
2023-03-19T03:39:20.215Z,9.40
2023-03-19T03:41:48.267Z,9.38
2023-03-19T03:44:16.654Z,9.36
2023-03-19T03:46:45.517Z,9.34
2023-03-19T03:49:13.937Z,9.32
2023-03-19T03:51:42.447Z,9.31
2023-03-19T03:54:10.996Z,9.29
2023-03-19T03:56:39.066Z,9.27
2023-03-19T03:59:07.732Z,9.26
2023-03-19T04:01:36.300Z,9.24
2023-03-19T04:04:04.973Z,9.22
2023-03-19T04:06:33.148Z,9.19
2023-03-19T04:09:21.920Z,9.16
2023-03-19T04:11:51.557Z,9.14
2023-03-19T04:14:20.319Z,9.12
2023-03-19T04:16:48.720Z,9.12
2023-03-19T04:19:17.011Z,9.12
2023-03-19T04:21:45.728Z,9.11
2023-03-19T04:24:14.370Z,9.11
2023-03-19T04:26:42.719Z,9.10
2023-03-19T04:29:11.031Z,9.09
2023-03-19T04:31:39.671Z,9.10
2023-03-19T04:34:08.078Z,9.11
2023-03-19T04:36:36.853Z,9.11
2023-03-19T04:39:06.186Z,9.13
2023-03-19T04:41:34.919Z,9.12
2023-03-19T04:44:25.141Z,9.13
2023-03-19T04:46:54.626Z,9.12
2023-03-19T04:49:24.571Z,9.10
2023-03-19T04:51:53.111Z,9.08
2023-03-19T04:54:21.296Z,9.07
2023-03-19T04:56:49.708Z,9.04
2023-03-19T04:59:18.305Z,9.01
2023-03-19T05:01:46.455Z,9.00
2023-03-19T05:04:17.985Z,9.00
2023-03-19T05:06:46.664Z,8.99
2023-03-19T05:09:14.745Z,8.97
2023-03-19T05:11:44.431Z,8.95
2023-03-19T05:14:19.407Z,8.90
2023-03-19T05:17:08.026Z,8.87
2023-03-19T05:19:48.770Z,8.85
2023-03-19T05:22:18.631Z,8.83
2023-03-19T05:24:47.021Z,8.80
2023-03-19T05:27:15.778Z,8.77
2023-03-19T05:30:11.089Z,8.74
2023-03-19T05:32:58.945Z,8.70
2023-03-19T05:35:37.831Z,8.68
2023-03-19T05:38:11.191Z,8.68
2023-03-19T05:40:42.086Z,8.69
2023-03-19T05:43:23.570Z,8.68
2023-03-19T05:45:52.992Z,8.68
2023-03-19T05:48:24.071Z,8.69
2023-03-19T05:50:53.061Z,8.69
2023-03-19T05:53:23.192Z,8.71
2023-03-19T05:56:23.499Z,8.72
2023-03-19T05:59:17.235Z,8.74
2023-03-19T06:01:48.996Z,8.76
2023-03-19T06:04:17.331Z,8.79
2023-03-19T06:06:45.473Z,8.83
2023-03-19T06:09:14.039Z,8.87
2023-03-19T06:11:44.671Z,8.92
2023-03-19T06:14:42.030Z,8.99
2023-03-19T06:17:33.010Z,9.04
2023-03-19T06:20:04.678Z,9.08
2023-03-19T06:22:32.837Z,9.10
2023-03-19T06:25:01.117Z,9.13
2023-03-19T06:27:30.402Z,9.16
2023-03-19T06:30:08.138Z,9.18
2023-03-19T06:32:37.239Z,9.20
2023-03-19T06:35:11.011Z,9.23
2023-03-19T06:37:40.562Z,9.25
2023-03-19T06:40:10.102Z,9.28
2023-03-19T06:42:38.442Z,9.30
2023-03-19T06:45:07.749Z,9.33
2023-03-19T06:47:35.942Z,9.37
2023-03-19T06:50:04.578Z,9.39
2023-03-19T06:52:33.031Z,9.42
2023-03-19T06:55:01.243Z,9.44
2023-03-19T06:57:29.485Z,9.46
2023-03-19T06:59:57.762Z,9.49
2023-03-19T07:02:26.429Z,9.51
2023-03-19T07:04:54.734Z,9.55
2023-03-19T07:07:22.883Z,9.58
2023-03-19T07:09:51.488Z,9.61
2023-03-19T07:12:19.792Z,9.66
2023-03-19T07:14:47.994Z,9.70
2023-03-19T07:17:16.086Z,9.74
2023-03-19T07:19:44.660Z,9.78
2023-03-19T07:22:12.999Z,9.83
2023-03-19T07:24:41.344Z,9.88
2023-03-19T07:27:09.828Z,9.93
2023-03-19T07:29:38.484Z,9.97
2023-03-19T07:32:06.912Z,10.03
2023-03-19T07:34:35.182Z,10.09
2023-03-19T07:37:04.097Z,10.16
2023-03-19T07:39:32.581Z,10.23
2023-03-19T07:42:00.914Z,10.30
2023-03-19T07:44:30.696Z,10.37
2023-03-19T07:46:59.085Z,10.44
2023-03-19T07:49:27.243Z,10.51
2023-03-19T07:51:55.698Z,10.57
2023-03-19T07:54:23.978Z,10.64
2023-03-19T07:56:52.272Z,10.70
2023-03-19T07:59:20.422Z,10.76
2023-03-19T08:01:48.919Z,10.82
2023-03-19T08:04:17.710Z,10.88
2023-03-19T08:06:46.163Z,10.93
2023-03-19T08:09:14.277Z,11.00
2023-03-19T08:11:42.765Z,11.07
2023-03-19T08:14:10.885Z,11.14
2023-03-19T08:16:39.256Z,11.21
2023-03-19T08:19:08.437Z,11.29
2023-03-19T08:21:36.506Z,11.37
2023-03-19T08:24:05.144Z,11.45
2023-03-19T08:26:33.741Z,11.52
2023-03-19T08:29:02.049Z,11.57
2023-03-19T08:31:30.849Z,11.63
2023-03-19T08:34:04.168Z,11.70
2023-03-19T08:36:32.604Z,11.79
2023-03-19T08:39:01.291Z,11.88
2023-03-19T08:41:29.945Z,11.95
2023-03-19T08:43:58.322Z,12.03
2023-03-19T08:46:27.832Z,12.13
2023-03-19T08:48:56.353Z,12.23
2023-03-19T08:51:26.167Z,12.32
2023-03-19T08:53:54.467Z,12.42
2023-03-19T08:56:22.715Z,12.48
2023-03-19T08:58:51.093Z,12.55
2023-03-19T09:01:19.462Z,12.63
2023-03-19T09:03:48.161Z,12.70
2023-03-19T09:06:16.727Z,12.77
2023-03-19T09:08:44.941Z,12.84
2023-03-19T09:11:14.646Z,12.91
2023-03-19T09:13:42.795Z,12.98
2023-03-19T09:16:11.166Z,13.03
2023-03-19T09:18:39.309Z,13.10
2023-03-19T09:21:07.726Z,13.16
2023-03-19T09:23:36.316Z,13.22
2023-03-19T09:26:04.581Z,13.27
2023-03-19T09:28:32.730Z,13.32
2023-03-19T09:31:07.188Z,13.38
2023-03-19T09:33:35.828Z,13.42
2023-03-19T09:36:04.546Z,13.45
2023-03-19T09:38:33.633Z,13.47
2023-03-19T09:41:09.090Z,13.51
2023-03-19T09:43:50.720Z,13.56
2023-03-19T09:46:27.257Z,13.62
2023-03-19T09:49:01.029Z,13.69
2023-03-19T09:51:54.927Z,13.76
2023-03-19T09:54:42.872Z,13.82
2023-03-19T09:57:13.198Z,13.89
2023-03-19T09:59:43.332Z,13.95
2023-03-19T10:02:40.407Z,14.00
2023-03-19T10:05:18.349Z,14.05
2023-03-19T10:08:05.147Z,14.10
2023-03-19T10:10:49.514Z,14.13
2023-03-19T10:13:50.267Z,14.15
2023-03-19T10:16:24.364Z,14.18
2023-03-19T10:18:55.989Z,14.20
2023-03-19T10:21:30.219Z,14.22
2023-03-19T10:24:08.092Z,14.23
2023-03-19T10:26:36.301Z,14.26
2023-03-19T10:29:11.951Z,14.26
2023-03-19T10:31:58.326Z,14.28
2023-03-19T10:34:42.469Z,14.32
2023-03-19T10:37:13.582Z,14.37
2023-03-19T10:39:44.788Z,14.42
2023-03-19T10:42:37.869Z,14.49
2023-03-19T10:45:24.018Z,14.55
2023-03-19T10:47:53.050Z,14.63
2023-03-19T10:50:30.424Z,14.70
2023-03-19T10:53:18.462Z,14.77
2023-03-19T10:56:00.921Z,14.85
2023-03-19T10:58:31.607Z,14.95
2023-03-19T11:01:19.976Z,15.04
2023-03-19T11:03:52.541Z,15.12
2023-03-19T11:06:26.778Z,15.21
2023-03-19T11:09:07.703Z,15.30
2023-03-19T11:11:42.832Z,15.37
2023-03-19T11:14:24.901Z,15.42
2023-03-19T11:16:59.363Z,15.46
2023-03-19T11:19:30.862Z,15.48
2023-03-19T11:22:11.493Z,15.48
2023-03-19T11:24:42.103Z,15.46
2023-03-19T11:27:11.666Z,15.44
2023-03-19T11:29:45.214Z,15.40
2023-03-19T11:32:33.584Z,15.36
2023-03-19T11:35:11.249Z,15.32
2023-03-19T11:37:48.130Z,15.28
2023-03-19T11:40:46.063Z,15.24
2023-03-19T11:43:40.656Z,15.19
2023-03-19T11:46:35.908Z,15.15
2023-03-19T11:49:25.445Z,15.12
2023-03-19T11:52:03.410Z,15.10
2023-03-19T11:54:47.325Z,15.09
2023-03-19T11:57:43.686Z,15.08
2023-03-19T12:00:33.291Z,15.08
2023-03-19T12:03:22.191Z,15.08
2023-03-19T12:05:58.904Z,15.09
2023-03-19T12:08:32.947Z,15.11
2023-03-19T12:11:16.889Z,15.13
2023-03-19T12:13:51.344Z,15.15
2023-03-19T12:16:30.558Z,15.16
2023-03-19T12:19:12.202Z,15.18
2023-03-19T12:22:09.222Z,15.21
2023-03-19T12:25:14.962Z,15.23
2023-03-19T12:28:03.319Z,15.28
2023-03-19T12:30:57.644Z,15.40
2023-03-19T12:33:53.997Z,15.53
2023-03-19T12:36:28.511Z,15.69
2023-03-19T12:39:05.384Z,15.84
2023-03-19T12:41:39.280Z,16.01
2023-03-19T12:44:17.187Z,16.18
2023-03-19T12:46:59.688Z,16.36
2023-03-19T12:49:37.998Z,16.56
2023-03-19T12:52:27.389Z,16.73
2023-03-19T12:55:04.498Z,16.93
2023-03-19T12:57:46.869Z,17.07
2023-03-19T13:00:22.897Z,17.20
2023-03-19T13:02:58.262Z,17.31
2023-03-19T13:05:35.456Z,17.43
2023-03-19T13:08:27.808Z,17.54
2023-03-19T13:10:59.074Z,17.63
2023-03-19T13:13:32.119Z,17.68
2023-03-19T13:16:18.836Z,17.71
2023-03-19T13:18:58.144Z,17.69
2023-03-19T13:21:37.914Z,17.64
2023-03-19T13:24:18.951Z,17.63
2023-03-19T13:26:49.188Z,17.70
2023-03-19T13:29:20.077Z,17.79
2023-03-19T13:31:48.978Z,17.85
2023-03-19T13:34:17.079Z,17.85
2023-03-19T13:36:51.849Z,17.82
2023-03-19T13:39:26.348Z,17.83
2023-03-19T13:42:08.049Z,17.77
2023-03-19T13:44:36.527Z,17.55
2023-03-19T13:47:27.014Z,17.38
2023-03-19T13:50:16.356Z,17.16
2023-03-19T13:52:50.768Z,16.95
2023-03-19T13:55:24.807Z,16.80
2023-03-19T13:58:12.627Z,16.65
2023-03-19T14:00:46.937Z,16.44
2023-03-19T14:03:25.461Z,16.26
2023-03-19T14:05:56.788Z,16.12
2023-03-19T14:08:33.639Z,15.96
2023-03-19T14:11:04.832Z,15.85
2023-03-19T14:13:42.757Z,15.78
2023-03-19T14:16:26.445Z,15.70
2023-03-19T14:19:01.323Z,15.63
2023-03-19T14:21:46.489Z,15.56
2023-03-19T14:27:36.187Z,15.37
2023-03-19T14:30:19.167Z,15.29
2023-03-19T14:32:49.999Z,15.20
2023-03-19T14:35:22.690Z,15.13
2023-03-19T14:37:54.215Z,15.06
2023-03-19T14:40:26.067Z,14.98
2023-03-19T14:43:08.345Z,14.93
2023-03-19T14:45:45.404Z,14.87
2023-03-19T14:48:38.298Z,14.82
2023-03-19T14:51:25.508Z,14.79
2023-03-19T14:53:58.904Z,14.78
2023-03-19T14:56:35.915Z,14.79
2023-03-19T14:59:06.181Z,14.83
2023-03-19T15:01:41.173Z,14.85
2023-03-19T15:04:12.353Z,14.85
2023-03-19T15:06:42.991Z,14.83
2023-03-19T15:09:31.269Z,14.78
2023-03-19T15:12:34.459Z,14.72
2023-03-19T15:15:30.905Z,14.66
2023-03-19T15:18:05.234Z,14.59
2023-03-19T15:20:37.814Z,14.52
2023-03-19T15:23:20.055Z,14.47
2023-03-19T15:26:01.069Z,14.45
2023-03-19T15:28:45.672Z,14.42
2023-03-19T15:31:30.911Z,14.39
2023-03-19T15:34:01.716Z,14.29
2023-03-19T15:36:33.350Z,14.18
2023-03-19T15:39:05.170Z,14.07
2023-03-19T15:41:40.203Z,13.94
2023-03-19T15:44:16.271Z,13.82
2023-03-19T15:46:45.934Z,13.73
2023-03-19T15:49:21.129Z,13.66
2023-03-19T15:51:53.538Z,13.59
2023-03-19T15:54:22.649Z,13.54
2023-03-19T15:56:52.350Z,13.47
2023-03-19T15:59:25.973Z,13.42
2023-03-19T16:02:01.139Z,13.35
2023-03-19T16:04:38.407Z,13.27
2023-03-19T16:07:23.747Z,13.18
2023-03-19T16:09:52.106Z,13.12
2023-03-19T16:12:40.983Z,13.07
2023-03-19T16:15:43.733Z,13.01
2023-03-19T16:18:20.914Z,12.94
2023-03-19T16:20:59.044Z,12.88
2023-03-19T16:23:51.852Z,12.79
2023-03-19T16:26:44.588Z,12.71
2023-03-19T16:29:34.240Z,12.61
2023-03-19T16:32:11.381Z,12.53
2023-03-19T16:34:57.136Z,12.48
2023-03-19T16:37:37.892Z,12.44
2023-03-19T16:40:12.510Z,12.40
2023-03-19T16:42:44.870Z,12.34
2023-03-19T16:45:18.985Z,12.26
2023-03-19T16:47:50.042Z,12.19
2023-03-19T16:50:21.845Z,12.13
2023-03-19T16:52:50.717Z,12.08
2023-03-19T16:55:23.221Z,12.02
2023-03-19T16:57:58.078Z,11.97
2023-03-19T17:00:29.514Z,11.94
2023-03-19T17:02:59.531Z,11.93
2023-03-19T17:05:28.834Z,11.92
2023-03-19T17:07:56.999Z,11.91
2023-03-19T17:10:27.661Z,11.90
2023-03-19T17:12:56.753Z,11.88
2023-03-19T17:15:30.060Z,11.84
2023-03-19T17:18:00.582Z,11.79
2023-03-19T17:20:33.367Z,11.76
2023-03-19T17:23:02.225Z,11.74
2023-03-19T17:25:30.735Z,11.73
2023-03-19T17:27:59.016Z,11.71
2023-03-19T17:30:28.761Z,11.69
2023-03-19T17:32:57.818Z,11.68
2023-03-19T17:35:26.374Z,11.68
2023-03-19T17:37:55.334Z,11.65
2023-03-19T17:40:27.574Z,11.64
2023-03-19T17:42:56.434Z,11.62
2023-03-19T17:45:29.935Z,11.59
2023-03-19T17:47:58.714Z,11.55
2023-03-19T17:50:31.471Z,11.50
2023-03-19T17:53:00.596Z,11.45
2023-03-19T17:55:30.350Z,11.42
2023-03-19T17:57:58.469Z,11.39
2023-03-19T18:00:26.995Z,11.40
2023-03-19T18:02:57.008Z,11.41
2023-03-19T18:05:26.259Z,11.40
2023-03-19T18:07:56.446Z,11.40
2023-03-19T18:10:29.772Z,11.41
2023-03-19T18:13:00.166Z,11.42
2023-03-19T18:15:33.542Z,11.44
2023-03-19T18:18:04.433Z,11.45
2023-03-19T18:20:37.955Z,11.47
2023-03-19T18:23:06.571Z,11.49
2023-03-19T18:25:35.879Z,11.50
2023-03-19T18:28:05.173Z,11.52
2023-03-19T18:30:35.689Z,11.54
2023-03-19T18:33:08.057Z,11.55
2023-03-19T18:35:45.595Z,11.58
2023-03-19T18:38:19.853Z,11.59
2023-03-19T18:40:49.123Z,11.61
2023-03-19T18:43:17.674Z,11.64
2023-03-19T18:45:51.090Z,11.65
2023-03-19T18:48:27.458Z,11.67
2023-03-19T18:50:56.572Z,11.69
2023-03-19T18:53:25.440Z,11.70
2023-03-19T18:55:53.784Z,11.71
2023-03-19T18:58:25.712Z,11.71
2023-03-19T19:00:54.509Z,11.72
2023-03-19T19:03:29.564Z,11.72
2023-03-19T19:05:57.769Z,11.73
2023-03-19T19:08:27.020Z,11.72
2023-03-19T19:11:03.422Z,11.72
2023-03-19T19:13:46.182Z,11.75
2023-03-19T19:16:29.458Z,12.01
2023-03-19T19:18:58.108Z,12.26
2023-03-19T19:21:26.645Z,12.46
2023-03-19T19:23:54.801Z,12.64
2023-03-19T19:26:26.611Z,12.82
2023-03-19T19:28:58.399Z,12.97
2023-03-19T19:31:32.501Z,13.10
2023-03-19T19:34:00.890Z,13.22
2023-03-19T19:36:29.448Z,13.32
2023-03-19T19:38:57.538Z,13.41
2023-03-19T19:41:27.060Z,13.53
2023-03-19T19:43:55.984Z,13.65
2023-03-19T19:46:24.718Z,13.75
2023-03-19T19:48:52.939Z,13.82
2023-03-19T19:51:24.180Z,13.85
2023-03-19T19:53:53.086Z,13.84
2023-03-19T19:56:24.325Z,13.83
2023-03-19T19:58:54.313Z,13.86
2023-03-19T20:01:24.908Z,13.89
2023-03-19T20:03:53.624Z,13.92
2023-03-19T20:06:21.981Z,13.95
2023-03-19T20:08:50.937Z,13.96
2023-03-19T20:11:22.259Z,13.97
2023-03-19T20:13:54.577Z,13.98
2023-03-19T20:16:24.225Z,13.98
2023-03-19T20:18:54.832Z,13.93
2023-03-19T20:21:23.382Z,13.89
2023-03-19T20:23:55.510Z,13.84
2023-03-19T20:26:24.931Z,13.83
2023-03-19T20:28:53.113Z,13.83
2023-03-19T20:31:29.639Z,13.86
2023-03-19T20:33:57.974Z,13.88
2023-03-19T20:36:26.898Z,13.88
2023-03-19T20:38:54.944Z,13.88
2023-03-19T20:41:27.082Z,13.91
2023-03-19T20:43:56.520Z,13.92
2023-03-19T20:46:24.848Z,13.92
2023-03-19T20:48:53.110Z,13.91
2023-03-19T20:51:31.742Z,13.86
2023-03-19T20:53:59.979Z,13.85
2023-03-19T20:56:28.270Z,13.85
2023-03-19T20:58:56.549Z,13.85
2023-03-19T21:01:25.092Z,13.86
2023-03-19T21:03:53.425Z,13.86
2023-03-19T21:06:23.955Z,13.82
2023-03-19T21:08:57.238Z,13.79
2023-03-19T21:11:39.948Z,13.78
2023-03-19T21:14:18.611Z,13.79
2023-03-19T21:16:47.028Z,13.78
2023-03-19T21:19:16.036Z,13.78
2023-03-19T21:21:44.160Z,13.79
2023-03-19T21:24:19.460Z,13.80
2023-03-19T21:26:47.788Z,13.81
2023-03-19T21:29:26.296Z,13.81
2023-03-19T21:31:55.497Z,13.82
2023-03-19T21:34:23.620Z,13.82
2023-03-19T21:36:52.123Z,13.78
2023-03-19T21:39:20.628Z,13.75
2023-03-19T21:41:48.750Z,13.72
2023-03-19T21:44:22.190Z,13.70
2023-03-19T21:46:51.416Z,13.69
2023-03-19T21:49:20.256Z,13.69
2023-03-19T21:51:49.791Z,13.71
2023-03-19T21:54:17.939Z,13.72
2023-03-19T21:56:46.351Z,13.73
2023-03-19T21:59:29.427Z,13.74
2023-03-19T22:01:57.917Z,13.73
2023-03-19T22:04:26.037Z,13.74
2023-03-19T22:06:54.146Z,13.74
2023-03-19T22:09:22.289Z,13.74
2023-03-19T22:11:51.121Z,13.73
2023-03-19T22:14:26.897Z,13.74
2023-03-19T22:16:56.129Z,13.74
2023-03-19T22:19:24.745Z,13.76
2023-03-19T22:21:53.591Z,13.78
2023-03-19T22:24:21.787Z,13.76
2023-03-19T22:26:56.584Z,13.75
2023-03-19T22:29:25.673Z,13.69
2023-03-19T22:31:55.807Z,13.63
2023-03-19T22:34:27.961Z,13.60
2023-03-19T22:36:56.230Z,13.58
2023-03-19T22:39:24.421Z,13.58
2023-03-19T22:41:52.557Z,13.57
2023-03-19T22:44:31.576Z,13.57
2023-03-19T22:47:01.838Z,13.58
2023-03-19T22:49:31.536Z,13.58
2023-03-19T22:51:59.750Z,13.58
2023-03-19T22:54:27.885Z,13.58
2023-03-19T22:56:56.121Z,13.57
2023-03-19T22:59:24.266Z,13.58
2023-03-19T23:01:52.524Z,13.57
2023-03-19T23:04:32.279Z,13.55
2023-03-19T23:07:01.408Z,13.51
2023-03-19T23:09:38.006Z,13.50
2023-03-19T23:14:36.935Z,13.43
2023-03-19T23:17:17.519Z,13.39
2023-03-19T23:19:45.796Z,13.33
2023-03-19T23:22:16.660Z,13.26
2023-03-19T23:24:45.073Z,13.15
2023-03-19T23:27:26.401Z,13.06
2023-03-19T23:29:55.045Z,12.99
2023-03-19T23:32:23.338Z,12.93
2023-03-19T23:34:59.571Z,12.88
2023-03-19T23:37:29.727Z,12.86
2023-03-19T23:39:58.006Z,12.84
2023-03-19T23:42:29.686Z,12.85
2023-03-19T23:45:01.607Z,12.84
2023-03-19T23:47:29.977Z,12.82
2023-03-19T23:49:58.005Z,12.82
2023-03-19T23:52:26.239Z,12.80
2023-03-19T23:54:54.296Z,12.77
2023-03-19T23:57:24.564Z,12.73
2023-03-19T23:59:53.554Z,12.73
